sensor_id;sensor_type;location;lat;lon;timestamp;temperature;humidity
25438;DHT22;13364;49.084;9.978;2023-05-31T00:00:55;14.10;56.40
25438;DHT22;13364;49.084;9.978;2023-05-31T00:03:22;14.10;56.40
25438;DHT22;13364;49.084;9.978;2023-05-31T00:05:49;14.00;56.70
25438;DHT22;13364;49.084;9.978;2023-05-31T00:08:16;13.90;56.60
25438;DHT22;13364;49.084;9.978;2023-05-31T00:10:43;13.80;57.00
25438;DHT22;13364;49.084;9.978;2023-05-31T00:13:11;13.80;57.20
25438;DHT22;13364;49.084;9.978;2023-05-31T00:15:38;13.70;57.20
25438;DHT22;13364;49.084;9.978;2023-05-31T00:18:05;13.70;57.40
25438;DHT22;13364;49.084;9.978;2023-05-31T00:20:32;13.70;57.30
25438;DHT22;13364;49.084;9.978;2023-05-31T00:22:59;13.70;57.30
25438;DHT22;13364;49.084;9.978;2023-05-31T00:25:26;13.60;57.40
25438;DHT22;13364;49.084;9.978;2023-05-31T00:27:53;13.60;57.60
25438;DHT22;13364;49.084;9.978;2023-05-31T00:30:22;13.60;57.50
25438;DHT22;13364;49.084;9.978;2023-05-31T00:32:49;13.50;57.60
25438;DHT22;13364;49.084;9.978;2023-05-31T00:35:16;13.50;57.80
25438;DHT22;13364;49.084;9.978;2023-05-31T00:37:44;13.50;58.10
25438;DHT22;13364;49.084;9.978;2023-05-31T00:40:11;13.40;57.60
25438;DHT22;13364;49.084;9.978;2023-05-31T00:42:38;13.40;57.80
25438;DHT22;13364;49.084;9.978;2023-05-31T00:45:06;13.40;57.90
25438;DHT22;13364;49.084;9.978;2023-05-31T00:47:34;13.40;58.10
25438;DHT22;13364;49.084;9.978;2023-05-31T00:50:02;13.30;58.30
25438;DHT22;13364;49.084;9.978;2023-05-31T00:52:30;13.30;58.40
25438;DHT22;13364;49.084;9.978;2023-05-31T00:55:01;13.20;58.40
25438;DHT22;13364;49.084;9.978;2023-05-31T00:57:29;13.20;58.60
25438;DHT22;13364;49.084;9.978;2023-05-31T00:59:56;13.10;58.70
25438;DHT22;13364;49.084;9.978;2023-05-31T01:02:24;13.10;58.80
25438;DHT22;13364;49.084;9.978;2023-05-31T01:04:51;13.00;59.10
25438;DHT22;13364;49.084;9.978;2023-05-31T01:07:18;13.00;59.00
25438;DHT22;13364;49.084;9.978;2023-05-31T01:09:45;13.00;59.30
25438;DHT22;13364;49.084;9.978;2023-05-31T01:12:20;13.00;59.20
25438;DHT22;13364;49.084;9.978;2023-05-31T01:15:22;12.90;59.10
25438;DHT22;13364;49.084;9.978;2023-05-31T01:18:09;13.00;59.40
25438;DHT22;13364;49.084;9.978;2023-05-31T01:20:39;13.00;59.30
25438;DHT22;13364;49.084;9.978;2023-05-31T01:23:34;12.90;59.50
25438;DHT22;13364;49.084;9.978;2023-05-31T01:26:33;12.90;59.60
25438;DHT22;13364;49.084;9.978;2023-05-31T01:29:06;12.80;59.80
25438;DHT22;13364;49.084;9.978;2023-05-31T01:31:35;12.80;59.60
25438;DHT22;13364;49.084;9.978;2023-05-31T01:34:03;12.60;60.10
25438;DHT22;13364;49.084;9.978;2023-05-31T01:36:31;12.50;60.60
25438;DHT22;13364;49.084;9.978;2023-05-31T01:39:01;12.50;60.80
25438;DHT22;13364;49.084;9.978;2023-05-31T01:41:32;12.50;60.60
25438;DHT22;13364;49.084;9.978;2023-05-31T01:44:02;12.50;60.70
25438;DHT22;13364;49.084;9.978;2023-05-31T01:46:33;12.50;60.70
25438;DHT22;13364;49.084;9.978;2023-05-31T01:49:01;12.60;61.00
25438;DHT22;13364;49.084;9.978;2023-05-31T01:51:30;12.60;60.90
25438;DHT22;13364;49.084;9.978;2023-05-31T01:54:00;12.60;60.90
25438;DHT22;13364;49.084;9.978;2023-05-31T01:56:28;12.60;61.00
25438;DHT22;13364;49.084;9.978;2023-05-31T01:58:58;12.50;61.00
25438;DHT22;13364;49.084;9.978;2023-05-31T02:01:25;12.40;61.30
25438;DHT22;13364;49.084;9.978;2023-05-31T02:03:53;12.40;61.60
25438;DHT22;13364;49.084;9.978;2023-05-31T02:06:20;12.40;61.30
25438;DHT22;13364;49.084;9.978;2023-05-31T02:08:48;12.30;61.60
25438;DHT22;13364;49.084;9.978;2023-05-31T02:11:15;12.20;61.60
25438;DHT22;13364;49.084;9.978;2023-05-31T02:13:42;12.20;62.00
25438;DHT22;13364;49.084;9.978;2023-05-31T02:16:09;12.20;61.90
25438;DHT22;13364;49.084;9.978;2023-05-31T02:18:37;12.30;61.80
25438;DHT22;13364;49.084;9.978;2023-05-31T02:21:06;12.30;61.60
25438;DHT22;13364;49.084;9.978;2023-05-31T02:23:33;12.30;61.70
25438;DHT22;13364;49.084;9.978;2023-05-31T02:26:01;12.30;61.60
25438;DHT22;13364;49.084;9.978;2023-05-31T02:28:28;12.30;61.80
25438;DHT22;13364;49.084;9.978;2023-05-31T02:30:59;12.30;61.90
25438;DHT22;13364;49.084;9.978;2023-05-31T02:33:29;12.30;62.20
25438;DHT22;13364;49.084;9.978;2023-05-31T02:36:00;12.30;62.10
25438;DHT22;13364;49.084;9.978;2023-05-31T02:38:27;12.30;62.00
25438;DHT22;13364;49.084;9.978;2023-05-31T02:40:55;12.30;62.10
25438;DHT22;13364;49.084;9.978;2023-05-31T02:43:22;12.20;61.90
25438;DHT22;13364;49.084;9.978;2023-05-31T02:45:49;12.10;62.50
25438;DHT22;13364;49.084;9.978;2023-05-31T02:48:16;12.00;62.90
25438;DHT22;13364;49.084;9.978;2023-05-31T02:50:44;12.00;63.20
25438;DHT22;13364;49.084;9.978;2023-05-31T02:53:28;11.90;63.30
25438;DHT22;13364;49.084;9.978;2023-05-31T02:56:06;11.90;63.50
25438;DHT22;13364;49.084;9.978;2023-05-31T02:59:00;11.80;63.90
25438;DHT22;13364;49.084;9.978;2023-05-31T03:01:41;11.70;64.00
25438;DHT22;13364;49.084;9.978;2023-05-31T03:04:31;11.60;64.30
25438;DHT22;13364;49.084;9.978;2023-05-31T03:06:58;11.50;64.50
25438;DHT22;13364;49.084;9.978;2023-05-31T03:09:28;11.40;65.00
25438;DHT22;13364;49.084;9.978;2023-05-31T03:11:56;11.30;65.30
25438;DHT22;13364;49.084;9.978;2023-05-31T03:14:23;11.30;65.50
25438;DHT22;13364;49.084;9.978;2023-05-31T03:16:53;11.20;65.80
25438;DHT22;13364;49.084;9.978;2023-05-31T03:19:21;11.20;65.80
25438;DHT22;13364;49.084;9.978;2023-05-31T03:21:51;11.20;66.00
25438;DHT22;13364;49.084;9.978;2023-05-31T03:24:18;11.20;66.30
25438;DHT22;13364;49.084;9.978;2023-05-31T03:26:48;11.10;66.60
25438;DHT22;13364;49.084;9.978;2023-05-31T03:29:15;11.00;66.70
25438;DHT22;13364;49.084;9.978;2023-05-31T03:31:42;11.00;66.90
25438;DHT22;13364;49.084;9.978;2023-05-31T03:34:09;11.00;67.10
25438;DHT22;13364;49.084;9.978;2023-05-31T03:36:37;11.00;67.20
25438;DHT22;13364;49.084;9.978;2023-05-31T03:39:21;11.00;67.20
25438;DHT22;13364;49.084;9.978;2023-05-31T03:41:48;11.00;67.40
25438;DHT22;13364;49.084;9.978;2023-05-31T03:44:15;11.10;67.50
25438;DHT22;13364;49.084;9.978;2023-05-31T03:46:43;11.10;67.30
25438;DHT22;13364;49.084;9.978;2023-05-31T03:49:10;11.20;67.00
25438;DHT22;13364;49.084;9.978;2023-05-31T03:51:38;11.30;67.00
25438;DHT22;13364;49.084;9.978;2023-05-31T03:54:05;11.30;66.80
25438;DHT22;13364;49.084;9.978;2023-05-31T03:56:32;11.40;66.70
25438;DHT22;13364;49.084;9.978;2023-05-31T03:58:59;11.40;66.90
25438;DHT22;13364;49.084;9.978;2023-05-31T04:01:26;11.40;67.00
25438;DHT22;13364;49.084;9.978;2023-05-31T04:03:53;11.40;67.10
25438;DHT22;13364;49.084;9.978;2023-05-31T04:06:21;11.30;67.20
25438;DHT22;13364;49.084;9.978;2023-05-31T04:08:49;11.30;67.50
25438;DHT22;13364;49.084;9.978;2023-05-31T04:11:16;11.40;67.40
25438;DHT22;13364;49.084;9.978;2023-05-31T04:13:43;11.30;67.70
25438;DHT22;13364;49.084;9.978;2023-05-31T04:16:11;11.40;67.90
25438;DHT22;13364;49.084;9.978;2023-05-31T04:18:38;11.40;67.60
25438;DHT22;13364;49.084;9.978;2023-05-31T04:21:05;11.40;67.40
25438;DHT22;13364;49.084;9.978;2023-05-31T04:23:34;11.30;67.60
25438;DHT22;13364;49.084;9.978;2023-05-31T04:26:03;11.40;67.50
25438;DHT22;13364;49.084;9.978;2023-05-31T04:28:31;11.40;67.70
25438;DHT22;13364;49.084;9.978;2023-05-31T04:30:58;11.40;67.60
25438;DHT22;13364;49.084;9.978;2023-05-31T04:33:26;11.40;67.80
25438;DHT22;13364;49.084;9.978;2023-05-31T04:35:56;11.30;68.40
25438;DHT22;13364;49.084;9.978;2023-05-31T04:38:25;11.30;68.80
25438;DHT22;13364;49.084;9.978;2023-05-31T04:40:56;11.40;68.60
25438;DHT22;13364;49.084;9.978;2023-05-31T04:43:25;11.40;68.80
25438;DHT22;13364;49.084;9.978;2023-05-31T04:45:53;11.50;69.00
25438;DHT22;13364;49.084;9.978;2023-05-31T04:48:22;11.60;69.20
25438;DHT22;13364;49.084;9.978;2023-05-31T04:50:51;11.70;68.60
25438;DHT22;13364;49.084;9.978;2023-05-31T04:53:18;11.80;68.80
25438;DHT22;13364;49.084;9.978;2023-05-31T04:55:46;11.90;68.30
25438;DHT22;13364;49.084;9.978;2023-05-31T04:58:13;12.00;68.50
25438;DHT22;13364;49.084;9.978;2023-05-31T05:00:40;12.10;67.70
25438;DHT22;13364;49.084;9.978;2023-05-31T05:03:14;12.20;67.40
25438;DHT22;13364;49.084;9.978;2023-05-31T05:05:44;12.30;68.00
25438;DHT22;13364;49.084;9.978;2023-05-31T05:08:12;12.40;67.70
25438;DHT22;13364;49.084;9.978;2023-05-31T05:10:40;12.50;66.80
25438;DHT22;13364;49.084;9.978;2023-05-31T05:13:07;12.50;66.70
25438;DHT22;13364;49.084;9.978;2023-05-31T05:15:36;12.60;66.90
25438;DHT22;13364;49.084;9.978;2023-05-31T05:18:03;12.70;66.60
25438;DHT22;13364;49.084;9.978;2023-05-31T05:20:32;12.80;66.10
25438;DHT22;13364;49.084;9.978;2023-05-31T05:22:59;12.90;65.30
25438;DHT22;13364;49.084;9.978;2023-05-31T05:25:35;12.90;66.20
25438;DHT22;13364;49.084;9.978;2023-05-31T05:28:02;12.90;65.20
25438;DHT22;13364;49.084;9.978;2023-05-31T05:30:29;13.00;65.20
25438;DHT22;13364;49.084;9.978;2023-05-31T05:32:57;13.00;65.40
25438;DHT22;13364;49.084;9.978;2023-05-31T05:35:24;13.10;65.10
25438;DHT22;13364;49.084;9.978;2023-05-31T05:37:51;13.10;65.50
25438;DHT22;13364;49.084;9.978;2023-05-31T05:40:20;13.20;65.40
25438;DHT22;13364;49.084;9.978;2023-05-31T05:42:48;13.20;65.40
25438;DHT22;13364;49.084;9.978;2023-05-31T05:45:15;13.30;65.40
25438;DHT22;13364;49.084;9.978;2023-05-31T05:47:44;13.40;65.60
25438;DHT22;13364;49.084;9.978;2023-05-31T05:50:15;13.50;65.40
25438;DHT22;13364;49.084;9.978;2023-05-31T05:52:42;13.60;64.40
25438;DHT22;13364;49.084;9.978;2023-05-31T05:55:09;13.70;64.60
25438;DHT22;13364;49.084;9.978;2023-05-31T05:57:36;13.80;65.10
25438;DHT22;13364;49.084;9.978;2023-05-31T06:00:33;13.80;64.40
25438;DHT22;13364;49.084;9.978;2023-05-31T06:03:00;13.90;63.80
25438;DHT22;13364;49.084;9.978;2023-05-31T06:05:28;14.00;63.80
25438;DHT22;13364;49.084;9.978;2023-05-31T06:07:55;14.10;63.70
25438;DHT22;13364;49.084;9.978;2023-05-31T06:10:22;14.20;63.10
25438;DHT22;13364;49.084;9.978;2023-05-31T06:12:50;14.30;63.40
25438;DHT22;13364;49.084;9.978;2023-05-31T06:15:19;14.30;62.40
25438;DHT22;13364;49.084;9.978;2023-05-31T06:17:47;14.40;61.90
25438;DHT22;13364;49.084;9.978;2023-05-31T06:20:16;14.50;62.00
25438;DHT22;13364;49.084;9.978;2023-05-31T06:22:44;14.50;61.50
25438;DHT22;13364;49.084;9.978;2023-05-31T06:25:14;14.60;61.60
25438;DHT22;13364;49.084;9.978;2023-05-31T06:27:41;14.70;61.50
25438;DHT22;13364;49.084;9.978;2023-05-31T06:30:09;14.70;62.00
25438;DHT22;13364;49.084;9.978;2023-05-31T06:32:42;14.90;62.30
25438;DHT22;13364;49.084;9.978;2023-05-31T06:35:11;15.00;62.20
25438;DHT22;13364;49.084;9.978;2023-05-31T06:37:38;15.20;61.40
25438;DHT22;13364;49.084;9.978;2023-05-31T06:40:06;15.20;60.50
25438;DHT22;13364;49.084;9.978;2023-05-31T06:42:36;15.30;60.30
25438;DHT22;13364;49.084;9.978;2023-05-31T06:45:31;15.40;60.20
25438;DHT22;13364;49.084;9.978;2023-05-31T06:48:21;15.60;59.90
25438;DHT22;13364;49.084;9.978;2023-05-31T06:51:14;15.70;60.00
25438;DHT22;13364;49.084;9.978;2023-05-31T06:54:01;15.90;58.50
25438;DHT22;13364;49.084;9.978;2023-05-31T06:56:28;15.90;58.50
25438;DHT22;13364;49.084;9.978;2023-05-31T06:58:56;16.00;58.40
25438;DHT22;13364;49.084;9.978;2023-05-31T07:01:24;16.10;57.90
25438;DHT22;13364;49.084;9.978;2023-05-31T07:03:52;16.20;58.60
25438;DHT22;13364;49.084;9.978;2023-05-31T07:06:19;16.30;58.40
25438;DHT22;13364;49.084;9.978;2023-05-31T07:08:49;16.40;58.00
25438;DHT22;13364;49.084;9.978;2023-05-31T07:11:35;16.50;57.60
25438;DHT22;13364;49.084;9.978;2023-05-31T07:14:02;16.60;57.70
25438;DHT22;13364;49.084;9.978;2023-05-31T07:16:31;16.70;56.50
25438;DHT22;13364;49.084;9.978;2023-05-31T07:18:59;16.80;55.80
25438;DHT22;13364;49.084;9.978;2023-05-31T07:21:26;16.90;55.80
25438;DHT22;13364;49.084;9.978;2023-05-31T07:23:54;17.00;55.40
25438;DHT22;13364;49.084;9.978;2023-05-31T07:26:22;17.10;55.70
25438;DHT22;13364;49.084;9.978;2023-05-31T07:28:50;17.10;56.50
25438;DHT22;13364;49.084;9.978;2023-05-31T07:31:19;17.30;55.80
25438;DHT22;13364;49.084;9.978;2023-05-31T07:33:47;17.40;56.00
25438;DHT22;13364;49.084;9.978;2023-05-31T07:36:15;17.50;55.50
25438;DHT22;13364;49.084;9.978;2023-05-31T07:38:42;17.60;55.90
25438;DHT22;13364;49.084;9.978;2023-05-31T07:41:09;17.80;55.20
25438;DHT22;13364;49.084;9.978;2023-05-31T07:43:36;17.90;54.20
25438;DHT22;13364;49.084;9.978;2023-05-31T07:46:05;18.00;53.30
25438;DHT22;13364;49.084;9.978;2023-05-31T07:48:32;18.10;52.50
25438;DHT22;13364;49.084;9.978;2023-05-31T07:51:00;18.30;52.80
25438;DHT22;13364;49.084;9.978;2023-05-31T07:53:27;18.40;51.80
25438;DHT22;13364;49.084;9.978;2023-05-31T07:55:54;18.60;52.60
25438;DHT22;13364;49.084;9.978;2023-05-31T07:58:21;18.70;51.80
25438;DHT22;13364;49.084;9.978;2023-05-31T08:00:48;18.90;51.40
25438;DHT22;13364;49.084;9.978;2023-05-31T08:03:18;19.00;50.60
25438;DHT22;13364;49.084;9.978;2023-05-31T08:05:46;19.10;49.90
25438;DHT22;13364;49.084;9.978;2023-05-31T08:08:16;19.20;50.30
25438;DHT22;13364;49.084;9.978;2023-05-31T08:10:43;19.40;48.70
25438;DHT22;13364;49.084;9.978;2023-05-31T08:13:10;19.50;49.10
25438;DHT22;13364;49.084;9.978;2023-05-31T08:15:37;19.70;48.20
25438;DHT22;13364;49.084;9.978;2023-05-31T08:18:04;19.90;47.90
25438;DHT22;13364;49.084;9.978;2023-05-31T08:20:33;20.10;48.20
25438;DHT22;13364;49.084;9.978;2023-05-31T08:23:00;20.30;47.60
25438;DHT22;13364;49.084;9.978;2023-05-31T08:25:27;20.50;46.70
25438;DHT22;13364;49.084;9.978;2023-05-31T08:27:54;20.70;46.20
25438;DHT22;13364;49.084;9.978;2023-05-31T08:30:21;20.80;46.80
25438;DHT22;13364;49.084;9.978;2023-05-31T08:32:48;21.00;46.90
25438;DHT22;13364;49.084;9.978;2023-05-31T08:35:15;21.20;46.30
25438;DHT22;13364;49.084;9.978;2023-05-31T08:37:45;21.40;45.70
25438;DHT22;13364;49.084;9.978;2023-05-31T08:40:14;21.60;45.20
25438;DHT22;13364;49.084;9.978;2023-05-31T08:42:54;21.80;44.20
25438;DHT22;13364;49.084;9.978;2023-05-31T08:45:22;22.10;44.10
25438;DHT22;13364;49.084;9.978;2023-05-31T08:50:27;22.50;43.70
25438;DHT22;13364;49.084;9.978;2023-05-31T08:52:56;22.70;42.70
25438;DHT22;13364;49.084;9.978;2023-05-31T08:55:23;22.80;42.20
25438;DHT22;13364;49.084;9.978;2023-05-31T08:57:51;23.00;42.70
25438;DHT22;13364;49.084;9.978;2023-05-31T09:00:19;23.20;41.60
25438;DHT22;13364;49.084;9.978;2023-05-31T09:02:47;23.30;41.30
25438;DHT22;13364;49.084;9.978;2023-05-31T09:05:15;23.40;41.20
25438;DHT22;13364;49.084;9.978;2023-05-31T09:07:42;23.60;40.60
25438;DHT22;13364;49.084;9.978;2023-05-31T09:10:09;23.70;40.00
25438;DHT22;13364;49.084;9.978;2023-05-31T09:12:37;23.90;39.30
25438;DHT22;13364;49.084;9.978;2023-05-31T09:15:06;24.00;39.90
25438;DHT22;13364;49.084;9.978;2023-05-31T09:17:33;24.20;40.70
25438;DHT22;13364;49.084;9.978;2023-05-31T09:20:00;24.30;39.30
25438;DHT22;13364;49.084;9.978;2023-05-31T09:22:27;24.50;39.70
25438;DHT22;13364;49.084;9.978;2023-05-31T09:24:59;24.80;38.20
25438;DHT22;13364;49.084;9.978;2023-05-31T09:27:34;24.90;38.30
25438;DHT22;13364;49.084;9.978;2023-05-31T09:30:11;24.90;37.70
25438;DHT22;13364;49.084;9.978;2023-05-31T09:32:38;24.80;37.50
25438;DHT22;13364;49.084;9.978;2023-05-31T09:35:16;24.70;38.60
25438;DHT22;13364;49.084;9.978;2023-05-31T09:37:48;24.90;39.50
25438;DHT22;13364;49.084;9.978;2023-05-31T09:40:24;25.00;37.30
25438;DHT22;13364;49.084;9.978;2023-05-31T09:42:53;25.20;37.50
25438;DHT22;13364;49.084;9.978;2023-05-31T09:45:21;25.40;37.40
25438;DHT22;13364;49.084;9.978;2023-05-31T09:47:49;25.50;36.80
25438;DHT22;13364;49.084;9.978;2023-05-31T09:50:21;25.10;35.90
25438;DHT22;13364;49.084;9.978;2023-05-31T09:52:54;24.70;38.10
25438;DHT22;13364;49.084;9.978;2023-05-31T09:55:21;24.60;38.90
25438;DHT22;13364;49.084;9.978;2023-05-31T09:57:51;24.70;37.70
25438;DHT22;13364;49.084;9.978;2023-05-31T10:00:19;24.50;37.40
25438;DHT22;13364;49.084;9.978;2023-05-31T10:02:48;24.40;38.20
25438;DHT22;13364;49.084;9.978;2023-05-31T10:05:16;24.40;37.90
25438;DHT22;13364;49.084;9.978;2023-05-31T10:07:46;24.40;38.50
25438;DHT22;13364;49.084;9.978;2023-05-31T10:10:14;24.50;38.40
25438;DHT22;13364;49.084;9.978;2023-05-31T10:12:54;24.70;39.10
25438;DHT22;13364;49.084;9.978;2023-05-31T10:15:22;24.80;38.30
25438;DHT22;13364;49.084;9.978;2023-05-31T10:18:02;25.10;37.60
25438;DHT22;13364;49.084;9.978;2023-05-31T10:23:40;25.80;36.00
25438;DHT22;13364;49.084;9.978;2023-05-31T10:26:16;26.20;35.10
25438;DHT22;13364;49.084;9.978;2023-05-31T10:29:01;26.40;33.90
25438;DHT22;13364;49.084;9.978;2023-05-31T10:31:38;26.60;32.90
25438;DHT22;13364;49.084;9.978;2023-05-31T10:34:25;26.80;32.50
25438;DHT22;13364;49.084;9.978;2023-05-31T10:36:55;26.90;33.00
25438;DHT22;13364;49.084;9.978;2023-05-31T10:39:43;26.80;33.80
25438;DHT22;13364;49.084;9.978;2023-05-31T10:42:32;26.70;33.50
25438;DHT22;13364;49.084;9.978;2023-05-31T10:45:17;26.40;33.10
25438;DHT22;13364;49.084;9.978;2023-05-31T10:48:10;26.10;33.20
25438;DHT22;13364;49.084;9.978;2023-05-31T10:53:20;26.00;32.40
25438;DHT22;13364;49.084;9.978;2023-05-31T10:55:48;26.00;31.50
25438;DHT22;13364;49.084;9.978;2023-05-31T10:58:36;26.10;33.00
25438;DHT22;13364;49.084;9.978;2023-05-31T11:01:06;26.40;32.70
25438;DHT22;13364;49.084;9.978;2023-05-31T11:03:34;26.40;33.20
25438;DHT22;13364;49.084;9.978;2023-05-31T11:06:07;26.70;32.60
25438;DHT22;13364;49.084;9.978;2023-05-31T11:08:36;26.90;30.80
25438;DHT22;13364;49.084;9.978;2023-05-31T11:16:26;26.80;30.90
25438;DHT22;13364;49.084;9.978;2023-05-31T11:19:07;26.40;32.60
25438;DHT22;13364;49.084;9.978;2023-05-31T11:21:48;26.40;31.90
25438;DHT22;13364;49.084;9.978;2023-05-31T11:24:26;26.70;32.00
25438;DHT22;13364;49.084;9.978;2023-05-31T11:26:56;27.10;31.10
25438;DHT22;13364;49.084;9.978;2023-05-31T11:29:23;27.40;31.30
25438;DHT22;13364;49.084;9.978;2023-05-31T11:34:27;27.90;29.40
25438;DHT22;13364;49.084;9.978;2023-05-31T11:37:01;27.90;29.70
25438;DHT22;13364;49.084;9.978;2023-05-31T11:39:28;27.60;28.70
25438;DHT22;13364;49.084;9.978;2023-05-31T11:41:56;27.40;31.00
25438;DHT22;13364;49.084;9.978;2023-05-31T11:44:30;27.20;31.00
25438;DHT22;13364;49.084;9.978;2023-05-31T11:47:04;27.20;31.30
25438;DHT22;13364;49.084;9.978;2023-05-31T11:49:32;27.30;29.90
25438;DHT22;13364;49.084;9.978;2023-05-31T11:52:01;27.30;30.30
25438;DHT22;13364;49.084;9.978;2023-05-31T11:54:31;27.20;30.50
25438;DHT22;13364;49.084;9.978;2023-05-31T11:57:01;27.20;31.60
25438;DHT22;13364;49.084;9.978;2023-05-31T11:59:33;27.30;29.90
25438;DHT22;13364;49.084;9.978;2023-05-31T12:02:02;27.20;30.80
25438;DHT22;13364;49.084;9.978;2023-05-31T12:07:00;26.90;29.90
25438;DHT22;13364;49.084;9.978;2023-05-31T12:09:27;26.90;31.30
25438;DHT22;13364;49.084;9.978;2023-05-31T12:11:55;26.90;30.50
25438;DHT22;13364;49.084;9.978;2023-05-31T12:14:23;26.90;30.20
25438;DHT22;13364;49.084;9.978;2023-05-31T12:16:52;26.90;30.80
25438;DHT22;13364;49.084;9.978;2023-05-31T12:19:20;26.80;30.90
25438;DHT22;13364;49.084;9.978;2023-05-31T12:21:48;27.10;30.60
25438;DHT22;13364;49.084;9.978;2023-05-31T12:24:16;27.20;29.40
25438;DHT22;13364;49.084;9.978;2023-05-31T12:26:45;27.10;30.70
25438;DHT22;13364;49.084;9.978;2023-05-31T12:29:16;27.30;29.90
25438;DHT22;13364;49.084;9.978;2023-05-31T12:31:44;27.50;31.00
25438;DHT22;13364;49.084;9.978;2023-05-31T12:34:13;27.80;29.70
25438;DHT22;13364;49.084;9.978;2023-05-31T12:36:48;28.00;28.20
25438;DHT22;13364;49.084;9.978;2023-05-31T12:39:20;28.20;28.30
25438;DHT22;13364;49.084;9.978;2023-05-31T12:41:51;28.30;28.10
25438;DHT22;13364;49.084;9.978;2023-05-31T12:44:19;28.50;29.60
25438;DHT22;13364;49.084;9.978;2023-05-31T12:46:51;28.40;28.60
25438;DHT22;13364;49.084;9.978;2023-05-31T12:49:26;28.50;27.70
25438;DHT22;13364;49.084;9.978;2023-05-31T12:52:04;28.50;28.10
25438;DHT22;13364;49.084;9.978;2023-05-31T12:54:34;28.70;27.80
25438;DHT22;13364;49.084;9.978;2023-05-31T12:57:02;28.80;28.40
25438;DHT22;13364;49.084;9.978;2023-05-31T12:59:31;28.80;28.80
25438;DHT22;13364;49.084;9.978;2023-05-31T13:01:58;28.70;28.50
25438;DHT22;13364;49.084;9.978;2023-05-31T13:04:26;28.50;27.90
25438;DHT22;13364;49.084;9.978;2023-05-31T13:06:54;28.20;29.60
25438;DHT22;13364;49.084;9.978;2023-05-31T13:09:21;28.10;28.90
25438;DHT22;13364;49.084;9.978;2023-05-31T13:11:48;28.10;29.00
25438;DHT22;13364;49.084;9.978;2023-05-31T13:14:16;28.30;28.30
25438;DHT22;13364;49.084;9.978;2023-05-31T13:16:50;28.40;28.90
25438;DHT22;13364;49.084;9.978;2023-05-31T13:19:17;28.50;28.30
25438;DHT22;13364;49.084;9.978;2023-05-31T13:21:44;28.60;28.40
25438;DHT22;13364;49.084;9.978;2023-05-31T13:24:11;28.80;28.50
25438;DHT22;13364;49.084;9.978;2023-05-31T13:26:38;29.00;28.00
25438;DHT22;13364;49.084;9.978;2023-05-31T13:29:06;29.10;27.30
25438;DHT22;13364;49.084;9.978;2023-05-31T13:31:33;29.30;27.70
25438;DHT22;13364;49.084;9.978;2023-05-31T13:34:00;29.40;27.30
25438;DHT22;13364;49.084;9.978;2023-05-31T13:36:27;29.40;27.90
25438;DHT22;13364;49.084;9.978;2023-05-31T13:38:54;29.30;28.50
25438;DHT22;13364;49.084;9.978;2023-05-31T13:41:21;29.30;28.00
25438;DHT22;13364;49.084;9.978;2023-05-31T13:43:49;29.30;27.90
25438;DHT22;13364;49.084;9.978;2023-05-31T13:46:18;29.30;28.60
25438;DHT22;13364;49.084;9.978;2023-05-31T13:48:45;29.30;27.60
25438;DHT22;13364;49.084;9.978;2023-05-31T13:51:12;29.20;27.70
25438;DHT22;13364;49.084;9.978;2023-05-31T13:53:40;29.10;27.60
25438;DHT22;13364;49.084;9.978;2023-05-31T13:56:07;29.10;28.10
25438;DHT22;13364;49.084;9.978;2023-05-31T13:58:36;29.20;28.30
25438;DHT22;13364;49.084;9.978;2023-05-31T14:01:06;29.30;27.70
25438;DHT22;13364;49.084;9.978;2023-05-31T14:03:37;29.30;26.70
25438;DHT22;13364;49.084;9.978;2023-05-31T14:06:05;29.40;26.70
25438;DHT22;13364;49.084;9.978;2023-05-31T14:08:33;29.50;27.20
25438;DHT22;13364;49.084;9.978;2023-05-31T14:11:01;29.70;27.50
25438;DHT22;13364;49.084;9.978;2023-05-31T14:13:28;29.70;27.30
25438;DHT22;13364;49.084;9.978;2023-05-31T14:15:56;29.60;28.60
25438;DHT22;13364;49.084;9.978;2023-05-31T14:18:23;29.70;28.30
25438;DHT22;13364;49.084;9.978;2023-05-31T14:20:50;29.60;27.20
25438;DHT22;13364;49.084;9.978;2023-05-31T14:23:18;29.60;27.70
25438;DHT22;13364;49.084;9.978;2023-05-31T14:25:45;29.70;27.70
25438;DHT22;13364;49.084;9.978;2023-05-31T14:28:12;29.70;27.30
25438;DHT22;13364;49.084;9.978;2023-05-31T14:30:39;29.60;27.80
25438;DHT22;13364;49.084;9.978;2023-05-31T14:33:06;29.50;27.40
25438;DHT22;13364;49.084;9.978;2023-05-31T14:35:34;29.50;27.30
25438;DHT22;13364;49.084;9.978;2023-05-31T14:38:01;29.50;28.40
25438;DHT22;13364;49.084;9.978;2023-05-31T14:40:48;29.60;28.20
25438;DHT22;13364;49.084;9.978;2023-05-31T14:43:18;29.70;27.80
25438;DHT22;13364;49.084;9.978;2023-05-31T14:45:45;29.70;27.60
25438;DHT22;13364;49.084;9.978;2023-05-31T14:48:14;29.70;27.60
25438;DHT22;13364;49.084;9.978;2023-05-31T14:50:41;29.70;28.00
25438;DHT22;13364;49.084;9.978;2023-05-31T14:53:09;29.50;28.10
25438;DHT22;13364;49.084;9.978;2023-05-31T14:55:41;29.10;28.90
25438;DHT22;13364;49.084;9.978;2023-05-31T14:58:09;28.80;28.70
25438;DHT22;13364;49.084;9.978;2023-05-31T15:00:36;28.30;30.80
25438;DHT22;13364;49.084;9.978;2023-05-31T15:03:03;28.10;30.90
25438;DHT22;13364;49.084;9.978;2023-05-31T15:05:30;28.20;29.50
25438;DHT22;13364;49.084;9.978;2023-05-31T15:07:58;28.40;29.70
25438;DHT22;13364;49.084;9.978;2023-05-31T15:10:25;28.60;29.10
25438;DHT22;13364;49.084;9.978;2023-05-31T15:12:53;28.90;28.80
25438;DHT22;13364;49.084;9.978;2023-05-31T15:15:20;29.10;29.40
25438;DHT22;13364;49.084;9.978;2023-05-31T15:17:47;29.30;28.90
25438;DHT22;13364;49.084;9.978;2023-05-31T15:20:15;29.30;28.90
25438;DHT22;13364;49.084;9.978;2023-05-31T15:22:42;29.00;29.20
25438;DHT22;13364;49.084;9.978;2023-05-31T15:25:09;28.50;29.20
25438;DHT22;13364;49.084;9.978;2023-05-31T15:27:37;28.20;30.70
25438;DHT22;13364;49.084;9.978;2023-05-31T15:30:04;28.30;30.00
25438;DHT22;13364;49.084;9.978;2023-05-31T15:32:31;28.20;30.00
25438;DHT22;13364;49.084;9.978;2023-05-31T15:34:58;27.80;30.50
25438;DHT22;13364;49.084;9.978;2023-05-31T15:37:25;27.60;31.10
25438;DHT22;13364;49.084;9.978;2023-05-31T15:39:52;27.70;30.80
25438;DHT22;13364;49.084;9.978;2023-05-31T15:42:19;27.80;29.80
25438;DHT22;13364;49.084;9.978;2023-05-31T15:44:47;28.00;29.80
25438;DHT22;13364;49.084;9.978;2023-05-31T15:47:14;28.20;30.00
25438;DHT22;13364;49.084;9.978;2023-05-31T15:49:42;28.30;29.70
25438;DHT22;13364;49.084;9.978;2023-05-31T15:52:09;28.20;29.40
25438;DHT22;13364;49.084;9.978;2023-05-31T15:54:36;28.20;29.70
25438;DHT22;13364;49.084;9.978;2023-05-31T15:57:03;28.20;29.40
25438;DHT22;13364;49.084;9.978;2023-05-31T15:59:31;28.30;30.20
25438;DHT22;13364;49.084;9.978;2023-05-31T16:01:58;28.30;29.70
25438;DHT22;13364;49.084;9.978;2023-05-31T16:04:25;28.00;30.10